Time;durP1;ratioP1;P1;durP2;ratioP2;P2;SDS_P1;SDS_P2;PMS_P1;PMS_P2;Temp;Humidity;BMP_temperature;BMP_pressure;BME280_temperature;BME280_humidity;BME280_pressure;Samples;Min_cycle;Max_cycle;Signal;HPM_P1;HPM_P2
2021/09/17 00:01:40;;;;;;;0.80;0.63;;;;;;;19.26;67.74;99599.34;5113506;28;20067;-78
2021/09/17 00:04:07;;;;;;;0.00;0.00;;;;;;;19.26;67.85;99602.03;5109346;28;20130;-79
2021/09/17 00:06:35;;;;;;;0.47;0.45;;;;;;;19.26;67.89;99602.84;5110987;28;20105;-79
2021/09/17 00:09:04;;;;;;;0.13;0.13;;;;;;;19.26;67.96;99599.34;5113049;28;20163;-80
2021/09/17 00:11:31;;;;;;;0.30;0.30;;;;;;;19.26;67.81;99599.34;5115231;28;20048;-77
2021/09/17 00:14:00;;;;;;;2.50;0.82;;;;;;;19.23;67.63;99587.19;5112672;28;20071;-80
2021/09/17 00:16:30;;;;;;;0.00;0.00;;;;;;;19.21;67.74;99591.03;5116064;28;20055;-78
2021/09/17 00:18:57;;;;;;;0.10;0.10;;;;;;;19.17;67.82;99595.94;5113331;28;20193;-78
2021/09/17 00:21:24;;;;;;;0.00;0.00;;;;;;;19.15;67.83;99592.59;5110112;28;20134;-76
2021/09/17 00:23:55;;;;;;;0.05;0.05;;;;;;;19.18;67.60;99594.09;5112844;28;20143;-78
2021/09/17 00:26:23;;;;;;;0.10;0.10;;;;;;;19.19;67.47;99585.88;5091435;28;20041;-78
2021/09/17 00:28:51;;;;;;;0.10;0.10;;;;;;;19.18;67.40;99589.56;5072949;28;20128;-77
2021/09/17 00:31:18;;;;;;;0.00;0.00;;;;;;;19.18;67.53;99588.75;5070985;28;20084;-78
2021/09/17 00:33:48;;;;;;;0.00;0.00;;;;;;;19.15;67.45;99591.78;5067275;28;20049;-78
2021/09/17 00:36:15;;;;;;;3.13;0.47;;;;;;;19.20;67.34;99597.44;5072033;28;20076;-79
2021/09/17 00:38:43;;;;;;;0.00;0.00;;;;;;;19.25;67.20;99597.72;5069702;28;20144;-78
2021/09/17 00:41:11;;;;;;;0.08;0.08;;;;;;;19.33;66.91;99591.44;5071079;28;20084;-78
2021/09/17 00:43:40;;;;;;;0.00;0.00;;;;;;;19.36;66.89;99585.72;5073693;28;20039;-79
2021/09/17 00:46:08;;;;;;;0.00;0.00;;;;;;;19.36;66.88;99589.22;5077224;28;20040;-78
2021/09/17 00:48:36;;;;;;;0.30;0.30;;;;;;;19.35;67.12;99584.03;5069040;28;20072;-79
2021/09/17 00:51:05;;;;;;;0.00;0.00;;;;;;;19.29;67.12;99582.94;5051387;28;20048;-76
2021/09/17 00:53:34;;;;;;;0.15;0.08;;;;;;;19.27;67.19;99583.13;5069533;28;20083;-79
2021/09/17 00:56:05;;;;;;;0.20;0.20;;;;;;;19.26;67.10;99584.13;5088374;28;20024;-79
2021/09/17 00:58:32;;;;;;;0.00;0.00;;;;;;;19.20;67.46;99581.38;5110741;28;20618;-78
2021/09/17 01:01:01;;;;;;;0.00;0.00;;;;;;;19.10;67.26;99578.94;5110459;28;20130;-79
2021/09/17 01:03:29;;;;;;;0.30;0.30;;;;;;;19.03;67.38;99575.31;5106683;28;20183;-78
2021/09/17 01:05:57;;;;;;;0.10;0.10;;;;;;;18.99;67.12;99574.03;5109724;28;20052;-79
2021/09/17 01:08:26;;;;;;;0.38;0.38;;;;;;;18.95;67.25;99578.09;5110035;28;20218;-77
2021/09/17 01:10:54;;;;;;;0.20;0.20;;;;;;;18.89;67.07;99574.31;5109707;28;20138;-78
2021/09/17 01:13:22;;;;;;;0.30;0.30;;;;;;;18.86;67.28;99572.81;5109028;28;20131;-76
2021/09/17 01:15:50;;;;;;;0.55;0.55;;;;;;;18.84;67.12;99569.50;5109116;28;20050;-76
2021/09/17 01:18:19;;;;;;;0.00;0.00;;;;;;;18.84;66.99;99571.34;5090421;28;20517;-77
2021/09/17 01:20:47;;;;;;;0.00;0.00;;;;;;;18.82;66.91;99560.00;5075103;28;20054;-80
2021/09/17 01:23:16;;;;;;;0.10;0.10;;;;;;;18.82;67.02;99555.47;5109353;28;20126;-78
2021/09/17 01:25:43;;;;;;;0.00;0.00;;;;;;;18.82;66.69;99555.47;5109485;28;20086;-78
2021/09/17 01:28:12;;;;;;;0.50;0.50;;;;;;;18.80;66.97;99560.16;5111413;28;20498;-78
2021/09/17 01:30:41;;;;;;;0.00;0.00;;;;;;;18.77;66.91;99552.47;5119755;28;20506;-78
2021/09/17 01:33:08;;;;;;;0.20;0.20;;;;;;;18.75;67.02;99551.00;5118715;28;20071;-77
2021/09/17 01:35:35;;;;;;;1.20;1.10;;;;;;;18.69;67.02;99563.25;5119940;28;20051;-79
2021/09/17 01:38:02;;;;;;;0.10;0.10;;;;;;;18.63;66.98;99554.09;5112776;28;20116;-79
2021/09/17 01:40:31;;;;;;;0.28;0.28;;;;;;;18.58;67.01;99552.97;5111543;28;20048;-76
2021/09/17 01:42:58;;;;;;;0.22;0.22;;;;;;;18.55;66.98;99556.84;5110436;28;20104;-79
2021/09/17 01:45:26;;;;;;;0.00;0.00;;;;;;;18.48;66.86;99550.56;5109894;28;20447;-77
2021/09/17 01:47:53;;;;;;;0.00;0.00;;;;;;;18.45;66.74;99554.41;5092396;28;20134;-79
2021/09/17 01:50:21;;;;;;;0.00;0.00;;;;;;;18.38;67.10;99552.63;5114651;28;20096;-78
2021/09/17 01:52:48;;;;;;;0.00;0.00;;;;;;;18.33;66.91;99555.88;5120547;28;20081;-78
2021/09/17 01:55:17;;;;;;;0.10;0.10;;;;;;;18.22;67.35;99549.09;5116900;28;20044;-78
2021/09/17 01:57:45;;;;;;;0.20;0.20;;;;;;;18.13;67.50;99551.00;5113474;28;20052;-77
2021/09/17 02:00:14;;;;;;;0.00;0.00;;;;;;;18.07;67.56;99554.34;5093930;28;20103;-78
2021/09/17 02:02:41;;;;;;;1.02;0.85;;;;;;;18.08;67.56;99545.34;5111287;28;20079;-78
2021/09/17 02:05:08;;;;;;;0.03;0.03;;;;;;;18.02;67.71;99543.34;5112975;28;20086;-78
2021/09/17 02:07:35;;;;;;;0.10;0.10;;;;;;;18.08;67.43;99541.84;5111899;28;20558;-77
2021/09/17 02:10:05;;;;;;;0.00;0.00;;;;;;;18.11;67.24;99539.66;5094924;28;20047;-77
2021/09/17 02:12:33;;;;;;;0.00;0.00;;;;;;;18.12;67.34;99535.94;5094530;28;20423;-76
2021/09/17 02:15:02;;;;;;;0.20;0.20;;;;;;;18.12;67.35;99533.28;5111266;28;20127;-78
2021/09/17 02:17:31;;;;;;;0.00;0.00;;;;;;;18.09;67.39;99527.47;5111530;28;20131;-78
2021/09/17 02:19:58;;;;;;;0.10;0.10;;;;;;;18.03;67.24;99539.69;5113273;28;20051;-78
2021/09/17 02:22:29;;;;;;;0.00;0.00;;;;;;;18.01;67.44;99531.03;5111565;28;20495;-77
2021/09/17 02:24:58;;;;;;;0.00;0.00;;;;;;;18.01;67.14;99530.22;5111294;28;20059;-77
2021/09/17 02:27:25;;;;;;;0.00;0.00;;;;;;;18.01;67.38;99531.03;5077184;28;20086;-76
2021/09/17 02:29:53;;;;;;;0.00;0.00;;;;;;;18.00;67.47;99529.34;5111596;28;20413;-75
2021/09/17 02:32:22;;;;;;;0.00;0.00;;;;;;;18.00;67.08;99533.88;5112400;28;20127;-78
2021/09/17 02:34:50;;;;;;;0.00;0.00;;;;;;;17.96;67.29;99534.22;5112266;28;20398;-80
2021/09/17 02:37:17;;;;;;;0.00;0.00;;;;;;;17.94;67.29;99519.38;5112082;28;20132;-77
2021/09/17 02:39:44;;;;;;;0.00;0.00;;;;;;;18.00;67.10;99523.19;5112470;28;20138;-79
2021/09/17 02:42:11;;;;;;;0.00;0.00;;;;;;;18.00;67.02;99518.66;5113155;28;20123;-78
2021/09/17 02:44:38;;;;;;;0.10;0.10;;;;;;;18.01;67.02;99519.53;5114755;28;20184;-79
2021/09/17 02:47:06;;;;;;;0.00;0.00;;;;;;;17.98;67.09;99520.69;5114373;28;20131;-77
2021/09/17 02:49:35;;;;;;;0.00;0.00;;;;;;;17.94;67.06;99519.38;5112998;28;20068;-80
2021/09/17 02:52:03;;;;;;;0.00;0.00;;;;;;;17.91;67.00;99522.41;5112100;28;20531;-79
2021/09/17 02:54:31;;;;;;;0.00;0.00;;;;;;;17.89;67.24;99511.06;5112478;28;20048;-77
2021/09/17 02:56:59;;;;;;;0.00;0.00;;;;;;;17.89;66.93;99517.22;5111751;28;20043;-78
2021/09/17 02:59:26;;;;;;;0.00;0.00;;;;;;;17.87;67.06;99511.25;5114750;28;20097;-79
2021/09/17 03:01:56;;;;;;;0.00;0.00;;;;;;;17.89;66.97;99516.41;5114297;28;20173;-77
2021/09/17 03:04:23;;;;;;;0.00;0.00;;;;;;;17.94;66.99;99519.38;5092773;28;20121;-79
2021/09/17 03:06:53;;;;;;;0.15;0.15;;;;;;;17.95;66.80;99516.53;5094176;28;20542;-79
2021/09/17 03:09:20;;;;;;;0.00;0.00;;;;;;;17.97;66.55;99519.03;5112162;28;20044;-78
2021/09/17 03:11:47;;;;;;;0.05;0.05;;;;;;;17.98;66.66;99510.00;5112653;28;20056;-80
2021/09/17 03:14:16;;;;;;;0.00;0.00;;;;;;;18.00;66.53;99513.31;5112664;28;20063;-79
2021/09/17 03:16:43;;;;;;;0.00;0.00;;;;;;;17.99;66.58;99516.16;5114566;28;20050;-79
2021/09/17 03:19:11;;;;;;;0.00;0.00;;;;;;;17.98;66.78;99506.50;5110344;28;20079;-78
2021/09/17 03:21:38;;;;;;;0.00;0.00;;;;;;;17.94;66.76;99508.69;5112570;28;20083;-79
2021/09/17 03:24:07;;;;;;;0.00;0.00;;;;;;;17.88;66.64;99504.03;5111642;28;20083;-77
2021/09/17 03:26:34;;;;;;;0.00;0.00;;;;;;;17.89;66.75;99503.88;5112120;28;20093;-79
2021/09/17 03:29:02;;;;;;;0.10;0.10;;;;;;;17.91;66.63;99503.69;5110603;28;20075;-78
2021/09/17 03:31:29;;;;;;;0.00;0.00;;;;;;;17.91;66.42;99493.00;5110338;28;20130;-79
2021/09/17 03:33:58;;;;;;;0.00;0.00;;;;;;;17.94;66.68;99506.03;5111002;28;20040;-79
2021/09/17 03:36:26;;;;;;;0.82;0.80;;;;;;;17.90;66.50;99502.06;5091695;28;20044;-78
2021/09/17 03:38:54;;;;;;;0.00;0.00;;;;;;;17.84;66.53;99505.38;5111753;28;20140;-79
2021/09/17 03:41:22;;;;;;;0.25;0.25;;;;;;;17.86;66.78;99504.25;5111172;28;20098;-80
2021/09/17 03:43:50;;;;;;;0.40;0.40;;;;;;;17.87;66.40;99497.06;5096186;28;20517;-79
2021/09/17 03:46:17;;;;;;;0.00;0.00;;;;;;;17.89;66.50;99497.72;5093508;28;20048;-81
2021/09/17 03:48:45;;;;;;;0.00;0.00;;;;;;;17.90;66.42;99502.06;5093663;28;20513;-77
2021/09/17 03:51:12;;;;;;;0.10;0.10;;;;;;;17.90;66.37;99500.22;5111097;28;20051;-79
2021/09/17 03:53:40;;;;;;;0.00;0.00;;;;;;;17.90;66.38;99497.53;5109456;28;20051;-79
2021/09/17 03:56:08;;;;;;;0.00;0.00;;;;;;;17.87;66.39;99492.53;5110024;28;20051;-79
2021/09/17 03:58:37;;;;;;;0.00;0.00;;;;;;;17.79;66.65;99497.91;5111347;28;20056;-78
2021/09/17 04:01:04;;;;;;;0.00;0.00;;;;;;;17.80;66.50;99493.41;5110247;28;20192;-80
2021/09/17 04:03:40;;;;;;;0.00;0.00;;;;;;;17.82;66.52;99494.88;5107961;28;20294;-77
2021/09/17 04:06:08;;;;;;;0.15;0.15;;;;;;;17.85;66.16;99501.72;5109598;28;20539;-81
2021/09/17 04:08:35;;;;;;;0.30;0.30;;;;;;;17.83;66.27;99498.41;5109158;28;20056;-79
2021/09/17 04:11:02;;;;;;;0.00;0.00;;;;;;;17.81;66.27;99503.06;5110675;28;20060;-78
2021/09/17 04:13:29;;;;;;;0.00;0.00;;;;;;;17.78;66.39;99504.25;5077840;28;20154;-77
2021/09/17 04:15:58;;;;;;;0.00;0.00;;;;;;;17.77;66.49;99497.22;5109794;28;20122;-79
2021/09/17 04:18:25;;;;;;;0.00;0.00;;;;;;;17.78;66.35;99499.72;5118666;28;20036;-76
2021/09/17 04:20:52;;;;;;;0.00;0.00;;;;;;;17.82;66.27;99499.38;5111726;28;20130;-79
2021/09/17 04:23:21;;;;;;;0.00;0.00;;;;;;;17.81;66.36;99500.38;5109681;28;20090;-78
2021/09/17 04:25:49;;;;;;;0.70;0.70;;;;;;;17.80;66.17;99504.09;5114070;28;20080;-80
2021/09/17 04:28:17;;;;;;;0.10;0.10;;;;;;;17.77;66.25;99506.09;5120988;28;20063;-78
2021/09/17 04:30:44;;;;;;;0.10;0.10;;;;;;;17.77;66.33;99498.09;5114953;28;20047;-78
2021/09/17 04:33:16;;;;;;;0.00;0.00;;;;;;;17.75;66.01;99509.94;5108434;28;20051;-78
2021/09/17 04:35:44;;;;;;;0.00;0.00;;;;;;;17.74;66.32;99501.09;5109652;28;20043;-77
2021/09/17 04:38:14;;;;;;;0.00;0.00;;;;;;;17.71;66.29;99514.81;5112352;28;20043;-79
2021/09/17 04:40:42;;;;;;;0.00;0.00;;;;;;;17.71;66.29;99506.78;5110593;28;20154;-78
2021/09/17 04:43:09;;;;;;;0.00;0.00;;;;;;;17.68;66.19;99515.16;5110338;28;20043;-79
2021/09/17 04:45:36;;;;;;;0.00;0.00;;;;;;;17.58;66.54;99517.22;5114025;28;20086;-79
2021/09/17 04:48:08;;;;;;;0.00;0.00;;;;;;;17.56;66.54;99521.91;5119719;28;20100;-81
2021/09/17 04:50:37;;;;;;;0.00;0.00;;;;;;;17.52;66.83;99521.44;5109022;28;20048;-74
2021/09/17 04:53:04;;;;;;;0.00;0.00;;;;;;;17.44;66.80;99515.28;5111037;28;20044;-69
2021/09/17 04:55:31;;;;;;;0.10;0.10;;;;;;;17.36;67.04;99516.16;5105821;28;20039;-78
2021/09/17 04:58:04;;;;;;;0.00;0.00;;;;;;;17.24;67.35;99513.03;5105791;28;20470;-72
2021/09/17 05:00:31;;;;;;;0.10;0.10;;;;;;;17.24;67.24;99521.03;5105011;28;20555;-72
2021/09/17 05:02:58;;;;;;;0.00;0.00;;;;;;;17.24;67.24;99515.69;5104278;28;20080;-72
2021/09/17 05:05:27;;;;;;;0.15;0.15;;;;;;;17.25;67.18;99514.69;5105897;28;20052;-72
2021/09/17 05:07:56;;;;;;;0.00;0.00;;;;;;;17.29;67.00;99524.03;5106124;28;20040;-73
2021/09/17 05:10:23;;;;;;;0.00;0.00;;;;;;;17.29;66.94;99516.00;5108414;28;20343;-74
2021/09/17 05:12:50;;;;;;;0.00;0.00;;;;;;;17.32;67.02;99514.81;5106709;28;20048;-76
2021/09/17 05:15:20;;;;;;;0.00;0.00;;;;;;;17.36;66.92;99516.97;5105882;28;20071;-73
2021/09/17 05:17:47;;;;;;;0.00;0.00;;;;;;;17.35;66.81;99515.31;5106615;28;20464;-80
2021/09/17 05:20:15;;;;;;;0.00;0.00;;;;;;;17.41;66.60;99512.94;5107992;28;20051;-78
2021/09/17 05:22:42;;;;;;;0.00;0.00;;;;;;;17.43;66.53;99513.59;5107350;28;20115;-79
2021/09/17 05:25:11;;;;;;;0.00;0.00;;;;;;;17.49;66.66;99507.59;5113384;28;20218;-74
2021/09/17 05:27:38;;;;;;;0.20;0.20;;;;;;;17.51;66.58;99517.06;5111845;28;20044;-74
2021/09/17 05:30:07;;;;;;;0.00;0.00;;;;;;;17.51;66.51;99511.75;5110408;28;20455;-70
2021/09/17 05:32:34;;;;;;;0.00;0.00;;;;;;;17.55;66.06;99522.91;5121783;28;20086;-77
2021/09/17 05:35:01;;;;;;;0.03;0.03;;;;;;;17.61;66.41;99518.69;5112151;28;20126;-76
2021/09/17 05:37:28;;;;;;;0.00;0.00;;;;;;;17.58;66.49;99515.38;5119763;28;20043;-76
2021/09/17 05:39:55;;;;;;;0.00;0.00;;;;;;;17.59;66.36;99518.88;5112609;28;20122;-75
2021/09/17 05:42:24;;;;;;;0.00;0.00;;;;;;;17.65;66.53;99515.50;5111294;28;20036;-74
2021/09/17 05:44:51;;;;;;;0.10;0.10;;;;;;;17.69;66.54;99522.16;5111960;28;20077;-80
2021/09/17 05:47:18;;;;;;;0.00;0.00;;;;;;;17.72;66.16;99521.81;5116000;28;20040;-71
2021/09/17 05:49:45;;;;;;;0.00;0.00;;;;;;;17.82;65.94;99521.59;5122890;28;20140;-74
2021/09/17 05:52:12;;;;;;;0.00;0.00;;;;;;;17.95;66.01;99521.03;5116358;28;20137;-78
2021/09/17 05:54:40;;;;;;;0.00;0.00;;;;;;;18.02;65.69;99515.81;5112849;28;20094;-77
2021/09/17 05:57:08;;;;;;;0.00;0.00;;;;;;;18.06;65.53;99517.97;5110850;28;20059;-74
2021/09/17 05:59:36;;;;;;;0.00;0.00;;;;;;;18.12;65.60;99519.91;5125247;28;20044;-74
2021/09/17 06:02:06;;;;;;;0.03;0.03;;;;;;;18.12;65.44;99522.59;5112525;28;20553;-79
2021/09/17 06:04:33;;;;;;;0.00;0.00;;;;;;;18.13;65.78;99524.25;5108824;28;20048;-78
2021/09/17 06:07:00;;;;;;;0.00;0.00;;;;;;;18.13;65.88;99510.06;5111291;28;20491;-76
2021/09/17 06:09:28;;;;;;;0.00;0.00;;;;;;;18.12;65.86;99517.25;5112801;28;20104;-78
2021/09/17 06:11:55;;;;;;;0.00;0.00;;;;;;;18.14;65.67;99512.56;5110690;28;20043;-74
2021/09/17 06:14:22;;;;;;;0.20;0.20;;;;;;;18.17;65.83;99507.84;5111457;28;20047;-76
2021/09/17 06:16:51;;;;;;;0.00;0.00;;;;;;;18.13;65.80;99510.06;5112321;28;20130;-70
2021/09/17 06:19:18;;;;;;;0.00;0.00;;;;;;;18.05;65.96;99510.94;5109452;28;20131;-75
2021/09/17 06:21:44;;;;;;;0.10;0.10;;;;;;;18.00;65.94;99510.66;5110446;28;20123;-80
2021/09/17 06:24:11;;;;;;;0.00;0.00;;;;;;;17.94;66.30;99506.84;5110926;28;20068;-76
2021/09/17 06:26:38;;;;;;;0.10;0.10;;;;;;;17.94;66.09;99506.03;5108462;28;20138;-78
2021/09/17 06:29:08;;;;;;;0.00;0.00;;;;;;;18.00;66.24;99497.28;5109671;28;20695;-80
2021/09/17 06:31:36;;;;;;;0.17;0.17;;;;;;;18.04;66.08;99505.78;5109442;28;20086;-71
2021/09/17 06:34:05;;;;;;;0.00;0.00;;;;;;;18.12;65.71;99503.88;5107780;28;20123;-78
2021/09/17 06:36:32;;;;;;;0.00;0.00;;;;;;;18.17;65.75;99498.03;5111411;28;20047;-75
2021/09/17 06:39:00;;;;;;;0.00;0.00;;;;;;;18.17;65.53;99491.81;5110711;28;20138;-80
2021/09/17 06:41:28;;;;;;;0.00;0.00;;;;;;;18.33;65.51;99505.06;5112105;28;20071;-80
2021/09/17 06:43:55;;;;;;;0.00;0.00;;;;;;;18.51;64.95;99494.88;5111774;28;20131;-71
2021/09/17 06:46:22;;;;;;;0.00;0.00;;;;;;;18.73;64.44;99495.00;5112865;28;20300;-78
2021/09/17 06:48:49;;;;;;;0.10;0.10;;;;;;;18.80;64.20;99500.44;5111622;28;20136;-78
2021/09/17 06:51:18;;;;;;;0.00;0.00;;;;;;;18.75;64.51;99495.66;5114856;28;20043;-74
2021/09/17 06:53:45;;;;;;;0.00;0.00;;;;;;;18.79;64.46;99496.13;5115609;28;20059;-74
2021/09/17 06:56:13;;;;;;;0.00;0.00;;;;;;;18.90;64.35;99495.69;5117406;28;20097;-76
2021/09/17 06:58:40;;;;;;;0.17;0.17;;;;;;;18.87;64.48;99496.91;5120582;28;20092;-72
2021/09/17 07:01:07;;;;;;;0.00;0.00;;;;;;;18.84;64.25;99489.22;5127330;28;20032;-76
2021/09/17 07:03:34;;;;;;;0.00;0.00;;;;;;;18.77;64.45;99496.28;5124297;28;20050;-72
2021/09/17 07:06:01;;;;;;;0.00;0.00;;;;;;;18.84;64.34;99497.25;5122514;28;20134;-78
2021/09/17 07:08:33;;;;;;;0.08;0.08;;;;;;;18.81;64.33;99494.09;5114019;28;20079;-78
2021/09/17 07:11:00;;;;;;;0.00;0.00;;;;;;;18.93;64.29;99495.31;5114662;28;20043;-72
2021/09/17 07:13:27;;;;;;;0.00;0.00;;;;;;;19.02;64.16;99488.03;5112547;28;20039;-73
2021/09/17 07:15:54;;;;;;;0.30;0.30;;;;;;;19.19;63.88;99492.16;5112788;28;20075;-79
2021/09/17 07:18:21;;;;;;;0.00;0.00;;;;;;;19.15;63.63;99488.22;5112859;28;20122;-72
2021/09/17 07:20:50;;;;;;;0.00;0.00;;;;;;;19.16;63.77;99492.56;5110882;28;20075;-76
2021/09/17 07:23:17;;;;;;;0.22;0.22;;;;;;;19.08;63.90;99490.78;5108201;28;20207;-78
2021/09/17 07:25:46;;;;;;;0.10;0.10;;;;;;;19.19;63.78;99486.81;5110981;28;20086;-70
2021/09/17 07:28:13;;;;;;;0.00;0.00;;;;;;;19.42;63.30;99497.41;5109642;28;20123;-73
2021/09/17 07:30:40;;;;;;;0.00;0.00;;;;;;;19.42;63.03;99493.91;5107761;28;20127;-79
2021/09/17 07:33:07;;;;;;;0.65;0.65;;;;;;;19.45;63.23;99497.03;5107446;28;20120;-72
2021/09/17 07:35:35;;;;;;;0.00;0.00;;;;;;;19.63;62.90;99499.31;5108363;28;20048;-67
2021/09/17 07:38:02;;;;;;;0.00;0.00;;;;;;;19.72;62.56;99485.81;5108715;28;20120;-80
2021/09/17 07:40:30;;;;;;;0.10;0.10;;;;;;;19.70;63.06;99487.81;5108549;28;20048;-76
2021/09/17 07:42:59;;;;;;;0.05;0.05;;;;;;;19.80;62.79;99494.56;5110934;28;20391;-75
2021/09/17 07:45:27;;;;;;;0.30;0.30;;;;;;;19.65;63.04;99491.09;5115881;28;20051;-78
2021/09/17 07:47:55;;;;;;;1.02;0.75;;;;;;;19.42;63.29;99491.22;5105631;28;20130;-71
2021/09/17 07:50:24;;;;;;;0.03;0.03;;;;;;;19.14;63.85;99483.88;5107403;28;20055;-70
2021/09/17 07:52:51;;;;;;;0.20;0.20;;;;;;;19.05;64.00;99490.31;5115587;28;20073;-71
2021/09/17 07:55:18;;;;;;;0.08;0.08;;;;;;;19.03;64.05;99487.88;5109399;28;20052;-75
2021/09/17 07:57:45;;;;;;;0.08;0.08;;;;;;;18.96;63.86;99483.41;5111547;28;20514;-74
2021/09/17 08:00:16;;;;;;;0.00;0.00;;;;;;;18.99;63.91;99483.06;5107878;28;20054;-70
2021/09/17 08:02:44;;;;;;;0.00;0.00;;;;;;;19.17;63.42;99488.84;5105626;28;20051;-74
2021/09/17 08:05:14;;;;;;;0.43;0.43;;;;;;;19.19;63.43;99489.50;5113881;28;20127;-71
2021/09/17 08:07:41;;;;;;;0.52;0.52;;;;;;;19.29;63.26;99484.69;5059809;28;20051;-79
2021/09/17 08:10:09;;;;;;;0.08;0.08;;;;;;;19.50;62.95;99491.13;5109851;28;20116;-68
2021/09/17 08:12:37;;;;;;;0.00;0.00;;;;;;;19.64;62.51;99494.78;5111271;28;20048;-77
2021/09/17 08:15:05;;;;;;;0.10;0.10;;;;;;;19.67;62.28;99489.88;5113587;28;20103;-77
2021/09/17 08:17:33;;;;;;;0.10;0.10;;;;;;;19.59;62.72;99492.69;5108826;28;20127;-71
2021/09/17 08:20:00;;;;;;;0.00;0.00;;;;;;;19.77;62.47;99484.25;5111371;28;20040;-69
2021/09/17 08:22:28;;;;;;;0.17;0.17;;;;;;;20.01;62.17;99487.59;5110716;28;20085;-73
2021/09/17 08:24:55;;;;;;;0.03;0.03;;;;;;;20.14;61.93;99485.00;5108515;28;20044;-74
2021/09/17 08:27:22;;;;;;;0.08;0.08;;;;;;;19.96;62.00;99482.78;5110538;28;20086;-72
2021/09/17 08:29:49;;;;;;;0.38;0.38;;;;;;;19.77;62.82;99483.41;5111023;28;20104;-76
2021/09/17 08:32:16;;;;;;;0.00;0.00;;;;;;;19.86;62.60;99485.78;5108398;28;20468;-71
2021/09/17 08:34:45;;;;;;;0.00;0.00;;;;;;;20.01;62.29;99484.91;5110968;28;20178;-70
2021/09/17 08:37:12;;;;;;;0.00;0.00;;;;;;;20.12;61.94;99480.88;5112136;28;20055;-71
2021/09/17 08:39:39;;;;;;;0.00;0.00;;;;;;;20.22;62.00;99478.69;5107746;28;20083;-70
2021/09/17 08:42:08;;;;;;;0.00;0.00;;;;;;;20.43;61.44;99475.97;5108388;28;20185;-76
2021/09/17 08:44:37;;;;;;;0.77;0.77;;;;;;;20.42;61.55;99487.75;5116319;28;20039;-71
2021/09/17 08:47:06;;;;;;;0.40;0.40;;;;;;;20.62;61.00;99487.09;5114738;28;20177;-70
2021/09/17 08:49:35;;;;;;;0.15;0.15;;;;;;;20.70;60.80;99478.88;5113693;28;20130;-77
2021/09/17 08:52:04;;;;;;;0.10;0.10;;;;;;;20.71;60.85;99480.56;5112040;28;20085;-71
2021/09/17 08:54:32;;;;;;;0.00;0.00;;;;;;;20.75;60.80;99481.81;5114717;28;20252;-72
2021/09/17 08:56:59;;;;;;;0.00;0.00;;;;;;;20.67;60.99;99476.63;5110048;28;20127;-77
2021/09/17 08:59:26;;;;;;;0.93;0.85;;;;;;;20.80;60.82;99474.00;5115838;28;20095;-77
2021/09/17 09:01:53;;;;;;;0.00;0.00;;;;;;;21.05;60.57;99476.22;5113756;28;20048;-70
2021/09/17 09:04:31;;;;;;;0.10;0.10;;;;;;;21.02;60.43;99473.09;5116571;28;20047;-75
2021/09/17 09:07:06;;;;;;;0.00;0.00;;;;;;;20.99;60.57;99471.63;5114455;28;20044;-72
2021/09/17 09:09:33;;;;;;;0.00;0.00;;;;;;;21.12;60.11;99477.09;5116501;28;20058;-78
2021/09/17 09:12:00;;;;;;;0.45;0.45;;;;;;;21.18;60.07;99475.47;5114310;28;20048;-78
2021/09/17 09:14:27;;;;;;;0.20;0.20;;;;;;;21.10;60.06;99472.94;5110219;28;20138;-75
2021/09/17 09:16:56;;;;;;;0.10;0.10;;;;;;;21.02;59.95;99471.25;5112743;28;20126;-79
2021/09/17 09:19:27;;;;;;;0.20;0.20;;;;;;;21.13;59.79;99468.00;5112095;28;20040;-76
2021/09/17 09:22:10;;;;;;;0.10;0.10;;;;;;;21.34;59.52;99468.91;5112013;28;20043;-78
2021/09/17 09:24:44;;;;;;;0.00;0.00;;;;;;;21.58;59.15;99471.09;5113034;28;20122;-73
2021/09/17 09:27:15;;;;;;;0.00;0.00;;;;;;;21.61;58.67;99469.03;5112308;28;20051;-80
2021/09/17 09:29:44;;;;;;;0.30;0.30;;;;;;;21.41;59.10;99471.59;5112085;28;20424;-76
2021/09/17 09:32:26;;;;;;;0.03;0.03;;;;;;;21.37;59.29;99471.19;5112335;28;20079;-80
2021/09/17 09:34:55;;;;;;;0.00;0.00;;;;;;;21.49;58.86;99466.09;5110999;28;20047;-79
2021/09/17 09:37:25;;;;;;;0.40;0.40;;;;;;;21.53;58.73;99460.09;5110591;28;20732;-74
2021/09/17 09:39:57;;;;;;;0.00;0.00;;;;;;;21.64;58.21;99469.44;5110756;28;20722;-79
2021/09/17 09:42:33;;;;;;;1.48;0.95;;;;;;;21.52;58.60;99465.72;5112361;28;20616;-75
2021/09/17 09:45:16;;;;;;;0.00;0.00;;;;;;;21.60;58.67;99465.50;5113830;28;20079;-74
2021/09/17 09:47:45;;;;;;;0.52;0.35;;;;;;;21.65;58.10;99457.69;5113105;28;20047;-76
2021/09/17 09:50:13;;;;;;;0.00;0.00;;;;;;;21.76;58.34;99459.75;5116334;28;20107;-75
2021/09/17 09:52:41;;;;;;;0.00;0.00;;;;;;;22.04;57.61;99463.31;5117333;28;20044;-73
2021/09/17 09:55:11;;;;;;;0.20;0.20;;;;;;;22.13;57.89;99465.63;5116140;28;20043;-77
2021/09/17 09:57:38;;;;;;;0.10;0.10;;;;;;;22.13;57.42;99462.09;5115928;28;20514;-70
2021/09/17 10:00:09;;;;;;;0.00;0.00;;;;;;;21.75;57.88;99459.97;5116439;28;20039;-70
2021/09/17 10:02:37;;;;;;;0.00;0.00;;;;;;;21.53;58.00;99462.78;5113350;28;20559;-72
2021/09/17 10:05:06;;;;;;;0.05;0.05;;;;;;;21.44;57.84;99463.16;5111143;28;20035;-75
2021/09/17 10:07:33;;;;;;;0.10;0.10;;;;;;;21.37;57.49;99463.97;5111205;28;20126;-77
2021/09/17 10:10:04;;;;;;;0.10;0.10;;;;;;;21.41;57.57;99452.81;5091672;28;20048;-79
2021/09/17 10:12:33;;;;;;;0.10;0.10;;;;;;;21.47;57.16;99452.88;5117135;28;20548;-73
2021/09/17 10:15:01;;;;;;;0.00;0.00;;;;;;;21.53;56.83;99457.41;5111287;28;20039;-73
2021/09/17 10:17:30;;;;;;;0.13;0.13;;;;;;;21.46;57.14;99453.88;5112377;28;20103;-75
2021/09/17 10:19:59;;;;;;;0.10;0.10;;;;;;;21.51;56.71;99459.50;5112268;28;20106;-78
2021/09/17 10:22:34;;;;;;;0.28;0.28;;;;;;;21.63;56.56;99458.91;5110638;28;20118;-81
2021/09/17 10:25:10;;;;;;;0.45;0.45;;;;;;;22.09;55.91;99455.47;5108386;28;20048;-72
2021/09/17 10:27:41;;;;;;;0.00;0.00;;;;;;;22.10;55.69;99455.25;5110453;28;20114;-76
2021/09/17 10:30:11;;;;;;;0.45;0.45;;;;;;;21.85;55.58;99444.28;5110100;28;20081;-76
2021/09/17 10:32:45;;;;;;;0.10;0.10;;;;;;;21.57;56.36;99452.47;5108993;28;20104;-75
2021/09/17 10:35:15;;;;;;;4.38;3.88;;;;;;;21.41;56.78;99448.28;5111211;28;20555;-80
2021/09/17 10:38:04;;;;;;;9.95;6.80;;;;;;;21.36;57.11;99456.13;5111869;28;20135;-77
2021/09/17 10:40:37;;;;;;;6.93;6.15;;;;;;;21.41;57.15;99453.66;5110078;28;20050;-79
2021/09/17 10:43:22;;;;;;;7.00;5.63;;;;;;;21.71;57.31;99451.47;5109244;28;20078;-75
2021/09/17 10:45:50;;;;;;;7.88;5.88;;;;;;;21.69;57.17;99448.16;5109114;28;20176;-74
2021/09/17 10:48:18;;;;;;;8.65;6.82;;;;;;;21.69;57.19;99444.66;5111225;28;20174;-76
2021/09/17 10:50:54;;;;;;;20.65;8.30;;;;;;;21.69;57.09;99460.78;5107526;28;20667;-72
2021/09/17 10:54:04;;;;;;;7.18;5.97;;;;;;;21.58;56.75;99451.44;5108406;28;20093;-77
2021/09/17 10:57:07;;;;;;;8.48;7.22;;;;;;;21.30;57.49;99457.75;5107997;28;20055;-72
2021/09/17 10:59:53;;;;;;;7.90;6.15;;;;;;;21.15;58.43;99449.81;5004326;28;20554;-70
2021/09/17 11:02:26;;;;;;;9.60;6.65;;;;;;;21.10;58.32;99454.94;5002612;28;20072;-70
2021/09/17 11:04:53;;;;;;;8.90;6.55;;;;;;;20.99;58.61;99444.78;5021594;28;20456;-73
2021/09/17 11:07:38;;;;;;;10.13;5.57;;;;;;;21.17;58.31;99447.75;5023051;28;20129;-73
2021/09/17 11:10:07;;;;;;;10.90;6.15;;;;;;;21.39;57.86;99447.63;5020554;28;20513;-70
2021/09/17 11:12:36;;;;;;;7.97;6.35;;;;;;;21.49;58.09;99440.06;5021972;28;20124;-74
2021/09/17 11:15:12;;;;;;;7.43;6.03;;;;;;;21.69;57.46;99444.66;5023773;28;20061;-71
2021/09/17 11:17:40;;;;;;;;;;;;;;;22.12;57.19;99455.06;5022450;28;20049;-72
2021/09/17 11:20:09;;;;;;;7.57;6.63;;;;;;;21.76;56.44;99440.13;5021400;28;19921;-69
2021/09/17 11:22:55;;;;;;;8.85;5.60;;;;;;;21.93;56.77;99438.72;5022205;28;20422;-71
2021/09/17 11:25:38;;;;;;;8.60;6.18;;;;;;;22.15;56.93;99442.03;5020405;28;20124;-72
2021/09/17 11:28:08;;;;;;;12.50;9.60;;;;;;;22.05;55.56;99441.59;5023179;28;20139;-77
2021/09/17 11:30:38;;;;;;;11.23;8.02;;;;;;;21.79;56.08;99438.88;5022127;28;20262;-74
2021/09/17 11:33:19;;;;;;;7.88;7.05;;;;;;;21.76;56.44;99434.75;5019630;28;20132;-74
2021/09/17 11:35:47;;;;;;;9.93;8.95;;;;;;;21.71;56.18;99440.72;5031933;28;20086;-76
2021/09/17 11:38:14;;;;;;;9.18;8.25;;;;;;;21.81;55.60;99434.97;5084188;28;20502;-74
2021/09/17 11:40:57;;;;;;;10.65;9.65;;;;;;;21.75;55.08;99427.72;5086068;28;20044;-76
2021/09/17 11:43:24;;;;;;;9.27;8.43;;;;;;;21.61;55.10;99432.25;5086039;28;20054;-70